sensor_id;sensor_type;location;lat;lon;timestamp;temperature;humidity
74153;DHT22;62505;46.070;14.492;2023-03-01T00:01:30;21.30;53.70
74153;DHT22;62505;46.070;14.492;2023-03-01T00:03:58;21.30;53.70
74153;DHT22;62505;46.070;14.492;2023-03-01T00:06:26;21.30;53.70
74153;DHT22;62505;46.070;14.492;2023-03-01T00:08:53;21.30;53.70
74153;DHT22;62505;46.070;14.492;2023-03-01T00:11:23;21.30;53.70
74153;DHT22;62505;46.070;14.492;2023-03-01T00:13:52;21.30;53.70
74153;DHT22;62505;46.070;14.492;2023-03-01T00:16:22;21.30;53.70
74153;DHT22;62505;46.070;14.492;2023-03-01T00:18:49;21.30;53.70
74153;DHT22;62505;46.070;14.492;2023-03-01T00:21:17;21.30;53.70
74153;DHT22;62505;46.070;14.492;2023-03-01T00:23:45;21.30;53.70
74153;DHT22;62505;46.070;14.492;2023-03-01T00:26:14;21.30;53.70
74153;DHT22;62505;46.070;14.492;2023-03-01T00:28:43;21.30;53.70
74153;DHT22;62505;46.070;14.492;2023-03-01T00:31:11;21.30;53.70
74153;DHT22;62505;46.070;14.492;2023-03-01T00:33:39;21.30;53.70
74153;DHT22;62505;46.070;14.492;2023-03-01T00:36:07;21.30;53.70
74153;DHT22;62505;46.070;14.492;2023-03-01T00:38:35;21.30;53.70
74153;DHT22;62505;46.070;14.492;2023-03-01T00:41:08;21.30;53.70
74153;DHT22;62505;46.070;14.492;2023-03-01T00:43:36;21.30;53.70
74153;DHT22;62505;46.070;14.492;2023-03-01T00:46:06;21.30;53.70
74153;DHT22;62505;46.070;14.492;2023-03-01T00:48:34;21.30;53.70
74153;DHT22;62505;46.070;14.492;2023-03-01T00:51:06;21.30;53.70
74153;DHT22;62505;46.070;14.492;2023-03-01T00:53:33;21.30;53.70
74153;DHT22;62505;46.070;14.492;2023-03-01T00:56:00;21.30;53.70
74153;DHT22;62505;46.070;14.492;2023-03-01T00:58:28;21.30;53.70
74153;DHT22;62505;46.070;14.492;2023-03-01T01:00:55;21.30;53.70
74153;DHT22;62505;46.070;14.492;2023-03-01T01:03:24;21.30;53.70
74153;DHT22;62505;46.070;14.492;2023-03-01T01:05:51;21.30;53.70
74153;DHT22;62505;46.070;14.492;2023-03-01T01:08:18;21.30;53.70
74153;DHT22;62505;46.070;14.492;2023-03-01T01:10:46;21.30;53.70
74153;DHT22;62505;46.070;14.492;2023-03-01T01:13:13;21.30;53.70
74153;DHT22;62505;46.070;14.492;2023-03-01T01:15:40;21.30;53.70
74153;DHT22;62505;46.070;14.492;2023-03-01T01:18:07;21.30;53.80
74153;DHT22;62505;46.070;14.492;2023-03-01T01:20:36;21.30;54.40
74153;DHT22;62505;46.070;14.492;2023-03-01T01:23:05;21.30;53.70
74153;DHT22;62505;46.070;14.492;2023-03-01T01:25:34;21.30;53.70
74153;DHT22;62505;46.070;14.492;2023-03-01T01:28:01;21.30;53.80
74153;DHT22;62505;46.070;14.492;2023-03-01T01:30:28;21.30;53.80
74153;DHT22;62505;46.070;14.492;2023-03-01T01:32:55;21.30;53.80
74153;DHT22;62505;46.070;14.492;2023-03-01T01:35:22;21.30;53.80
74153;DHT22;62505;46.070;14.492;2023-03-01T01:37:51;21.30;53.80
74153;DHT22;62505;46.070;14.492;2023-03-01T01:40:18;21.30;53.70
74153;DHT22;62505;46.070;14.492;2023-03-01T01:42:45;21.30;53.80
74153;DHT22;62505;46.070;14.492;2023-03-01T01:45:29;21.30;53.80
74153;DHT22;62505;46.070;14.492;2023-03-01T01:48:00;21.30;53.80
74153;DHT22;62505;46.070;14.492;2023-03-01T01:50:30;21.30;53.80
74153;DHT22;62505;46.070;14.492;2023-03-01T01:53:06;21.30;53.80
74153;DHT22;62505;46.070;14.492;2023-03-01T01:55:37;21.30;53.80
74153;DHT22;62505;46.070;14.492;2023-03-01T01:58:09;21.30;53.80
74153;DHT22;62505;46.070;14.492;2023-03-01T02:00:37;21.30;53.80
74153;DHT22;62505;46.070;14.492;2023-03-01T02:03:08;21.30;53.80
74153;DHT22;62505;46.070;14.492;2023-03-01T02:05:42;21.30;53.80
74153;DHT22;62505;46.070;14.492;2023-03-01T02:08:13;21.30;53.80
74153;DHT22;62505;46.070;14.492;2023-03-01T02:10:41;21.30;53.80
74153;DHT22;62505;46.070;14.492;2023-03-01T02:13:09;21.30;53.80
74153;DHT22;62505;46.070;14.492;2023-03-01T02:15:39;21.30;53.80
74153;DHT22;62505;46.070;14.492;2023-03-01T02:18:08;21.30;53.80
74153;DHT22;62505;46.070;14.492;2023-03-01T02:20:43;21.30;53.80
74153;DHT22;62505;46.070;14.492;2023-03-01T02:23:13;21.30;53.80
74153;DHT22;62505;46.070;14.492;2023-03-01T02:25:47;21.20;53.80
74153;DHT22;62505;46.070;14.492;2023-03-01T02:28:24;21.20;53.80
74153;DHT22;62505;46.070;14.492;2023-03-01T02:30:53;21.20;53.70
74153;DHT22;62505;46.070;14.492;2023-03-01T02:33:39;21.20;53.80
74153;DHT22;62505;46.070;14.492;2023-03-01T02:36:09;21.20;53.80
74153;DHT22;62505;46.070;14.492;2023-03-01T02:38:37;21.20;53.80
74153;DHT22;62505;46.070;14.492;2023-03-01T02:41:05;21.20;53.80
74153;DHT22;62505;46.070;14.492;2023-03-01T02:43:34;21.30;53.90
74153;DHT22;62505;46.070;14.492;2023-03-01T02:46:05;21.30;53.90
74153;DHT22;62505;46.070;14.492;2023-03-01T02:48:41;21.20;53.80
74153;DHT22;62505;46.070;14.492;2023-03-01T02:51:22;21.20;53.80
74153;DHT22;62505;46.070;14.492;2023-03-01T02:54:00;21.20;53.80
74153;DHT22;62505;46.070;14.492;2023-03-01T02:56:30;21.20;53.80
74153;DHT22;62505;46.070;14.492;2023-03-01T02:58:59;21.20;53.80
74153;DHT22;62505;46.070;14.492;2023-03-01T03:01:27;21.20;53.80
74153;DHT22;62505;46.070;14.492;2023-03-01T03:04:02;21.20;53.80
74153;DHT22;62505;46.070;14.492;2023-03-01T03:06:30;21.20;53.80
74153;DHT22;62505;46.070;14.492;2023-03-01T03:08:57;21.20;53.80
74153;DHT22;62505;46.070;14.492;2023-03-01T03:11:24;21.20;53.80
74153;DHT22;62505;46.070;14.492;2023-03-01T03:13:51;21.20;53.80
74153;DHT22;62505;46.070;14.492;2023-03-01T03:16:20;21.20;53.80
74153;DHT22;62505;46.070;14.492;2023-03-01T03:18:48;21.20;53.80
74153;DHT22;62505;46.070;14.492;2023-03-01T03:21:15;21.20;53.80
74153;DHT22;62505;46.070;14.492;2023-03-01T03:23:43;21.20;53.80
74153;DHT22;62505;46.070;14.492;2023-03-01T03:26:10;21.20;53.80
74153;DHT22;62505;46.070;14.492;2023-03-01T03:28:41;21.20;53.80
74153;DHT22;62505;46.070;14.492;2023-03-01T03:31:08;21.20;53.80
74153;DHT22;62505;46.070;14.492;2023-03-01T03:33:36;21.20;53.80
74153;DHT22;62505;46.070;14.492;2023-03-01T03:36:04;21.20;53.80
74153;DHT22;62505;46.070;14.492;2023-03-01T03:38:32;21.20;53.80
74153;DHT22;62505;46.070;14.492;2023-03-01T03:41:03;21.20;53.80
74153;DHT22;62505;46.070;14.492;2023-03-01T03:43:33;21.20;53.80
74153;DHT22;62505;46.070;14.492;2023-03-01T03:46:01;21.20;53.80
74153;DHT22;62505;46.070;14.492;2023-03-01T03:48:32;21.20;53.80
74153;DHT22;62505;46.070;14.492;2023-03-01T03:51:01;21.20;53.80
74153;DHT22;62505;46.070;14.492;2023-03-01T03:53:31;21.20;53.80
74153;DHT22;62505;46.070;14.492;2023-03-01T03:55:58;21.20;53.80
74153;DHT22;62505;46.070;14.492;2023-03-01T03:58:25;21.20;53.80
74153;DHT22;62505;46.070;14.492;2023-03-01T04:00:54;21.20;53.80
74153;DHT22;62505;46.070;14.492;2023-03-01T04:03:23;21.20;53.80
74153;DHT22;62505;46.070;14.492;2023-03-01T04:05:50;21.20;53.80
74153;DHT22;62505;46.070;14.492;2023-03-01T04:08:20;21.20;53.80
74153;DHT22;62505;46.070;14.492;2023-03-01T04:10:49;21.20;53.80
74153;DHT22;62505;46.070;14.492;2023-03-01T04:13:18;21.20;53.80
74153;DHT22;62505;46.070;14.492;2023-03-01T04:15:46;21.20;53.80
74153;DHT22;62505;46.070;14.492;2023-03-01T04:18:14;21.20;53.80
74153;DHT22;62505;46.070;14.492;2023-03-01T04:20:42;21.20;53.80
74153;DHT22;62505;46.070;14.492;2023-03-01T04:23:12;21.20;53.80
74153;DHT22;62505;46.070;14.492;2023-03-01T04:25:46;21.20;53.80
74153;DHT22;62505;46.070;14.492;2023-03-01T04:28:15;21.20;53.80
74153;DHT22;62505;46.070;14.492;2023-03-01T04:30:42;21.20;53.80
74153;DHT22;62505;46.070;14.492;2023-03-01T04:33:10;21.20;53.80
74153;DHT22;62505;46.070;14.492;2023-03-01T04:35:38;21.20;53.80
74153;DHT22;62505;46.070;14.492;2023-03-01T04:38:06;21.20;53.80
74153;DHT22;62505;46.070;14.492;2023-03-01T04:40:33;21.20;53.80
74153;DHT22;62505;46.070;14.492;2023-03-01T04:43:02;21.20;53.80
74153;DHT22;62505;46.070;14.492;2023-03-01T04:45:32;21.20;53.80
74153;DHT22;62505;46.070;14.492;2023-03-01T04:48:00;21.20;53.80
74153;DHT22;62505;46.070;14.492;2023-03-01T04:50:27;21.20;53.80
74153;DHT22;62505;46.070;14.492;2023-03-01T04:52:54;21.20;53.80
74153;DHT22;62505;46.070;14.492;2023-03-01T04:55:24;21.20;53.80
74153;DHT22;62505;46.070;14.492;2023-03-01T04:57:52;21.20;53.80
74153;DHT22;62505;46.070;14.492;2023-03-01T05:00:21;21.20;53.80
74153;DHT22;62505;46.070;14.492;2023-03-01T05:02:50;21.20;53.80
74153;DHT22;62505;46.070;14.492;2023-03-01T05:05:20;21.20;53.80
74153;DHT22;62505;46.070;14.492;2023-03-01T05:07:52;21.20;53.90
74153;DHT22;62505;46.070;14.492;2023-03-01T05:10:19;21.20;53.90
74153;DHT22;62505;46.070;14.492;2023-03-01T05:12:46;21.20;53.90
74153;DHT22;62505;46.070;14.492;2023-03-01T05:15:13;21.20;53.90
74153;DHT22;62505;46.070;14.492;2023-03-01T05:17:42;21.20;53.90
74153;DHT22;62505;46.070;14.492;2023-03-01T05:20:10;21.20;53.90
74153;DHT22;62505;46.070;14.492;2023-03-01T05:22:38;21.20;53.90
74153;DHT22;62505;46.070;14.492;2023-03-01T05:25:05;21.20;53.90
74153;DHT22;62505;46.070;14.492;2023-03-01T05:27:34;21.20;54.00
74153;DHT22;62505;46.070;14.492;2023-03-01T05:30:01;21.20;54.00
74153;DHT22;62505;46.070;14.492;2023-03-01T05:32:44;21.20;54.00
74153;DHT22;62505;46.070;14.492;2023-03-01T05:35:12;21.20;54.00
74153;DHT22;62505;46.070;14.492;2023-03-01T05:37:43;21.20;54.00
74153;DHT22;62505;46.070;14.492;2023-03-01T05:40:12;21.20;54.10
74153;DHT22;62505;46.070;14.492;2023-03-01T05:42:46;21.20;54.10
74153;DHT22;62505;46.070;14.492;2023-03-01T05:45:14;21.20;55.60
74153;DHT22;62505;46.070;14.492;2023-03-01T05:47:44;21.30;56.70
74153;DHT22;62505;46.070;14.492;2023-03-01T05:50:12;21.40;56.80
74153;DHT22;62505;46.070;14.492;2023-03-01T05:52:39;21.40;56.60
74153;DHT22;62505;46.070;14.492;2023-03-01T05:55:07;21.40;56.60
74153;DHT22;62505;46.070;14.492;2023-03-01T05:57:34;21.40;56.40
74153;DHT22;62505;46.070;14.492;2023-03-01T06:00:02;21.40;56.40
74153;DHT22;62505;46.070;14.492;2023-03-01T06:02:29;21.40;56.50
74153;DHT22;62505;46.070;14.492;2023-03-01T06:04:57;21.40;56.40
74153;DHT22;62505;46.070;14.492;2023-03-01T06:07:24;21.40;56.40
74153;DHT22;62505;46.070;14.492;2023-03-01T06:09:51;21.40;56.30
74153;DHT22;62505;46.070;14.492;2023-03-01T06:12:18;21.40;56.20
74153;DHT22;62505;46.070;14.492;2023-03-01T06:14:45;21.40;56.10
74153;DHT22;62505;46.070;14.492;2023-03-01T06:17:13;21.40;55.70
74153;DHT22;62505;46.070;14.492;2023-03-01T06:19:40;21.40;55.40
74153;DHT22;62505;46.070;14.492;2023-03-01T06:22:08;21.40;55.20
74153;DHT22;62505;46.070;14.492;2023-03-01T06:24:35;21.40;55.40
74153;DHT22;62505;46.070;14.492;2023-03-01T06:27:02;21.40;55.30
74153;DHT22;62505;46.070;14.492;2023-03-01T06:29:29;21.40;55.20
74153;DHT22;62505;46.070;14.492;2023-03-01T06:31:56;21.40;55.30
74153;DHT22;62505;46.070;14.492;2023-03-01T06:34:23;21.40;55.20
74153;DHT22;62505;46.070;14.492;2023-03-01T06:36:50;21.40;55.30
74153;DHT22;62505;46.070;14.492;2023-03-01T06:39:19;21.40;55.40
74153;DHT22;62505;46.070;14.492;2023-03-01T06:41:46;21.40;55.50
74153;DHT22;62505;46.070;14.492;2023-03-01T06:44:13;21.40;55.50
74153;DHT22;62505;46.070;14.492;2023-03-01T06:46:40;21.40;55.40
74153;DHT22;62505;46.070;14.492;2023-03-01T06:49:07;21.40;55.50
74153;DHT22;62505;46.070;14.492;2023-03-01T06:51:35;21.40;55.40
74153;DHT22;62505;46.070;14.492;2023-03-01T06:54:03;21.40;55.50
74153;DHT22;62505;46.070;14.492;2023-03-01T06:56:32;21.40;55.30
74153;DHT22;62505;46.070;14.492;2023-03-01T06:58:59;21.40;55.40
74153;DHT22;62505;46.070;14.492;2023-03-01T07:01:26;21.40;55.30
74153;DHT22;62505;46.070;14.492;2023-03-01T07:03:53;21.40;55.30
74153;DHT22;62505;46.070;14.492;2023-03-01T07:06:20;21.40;55.40
74153;DHT22;62505;46.070;14.492;2023-03-01T07:08:47;21.40;55.30
74153;DHT22;62505;46.070;14.492;2023-03-01T07:11:15;21.40;55.20
74153;DHT22;62505;46.070;14.492;2023-03-01T07:13:43;21.40;55.40
74153;DHT22;62505;46.070;14.492;2023-03-01T07:16:10;21.40;55.30
74153;DHT22;62505;46.070;14.492;2023-03-01T07:18:37;21.40;55.30
74153;DHT22;62505;46.070;14.492;2023-03-01T07:21:05;21.40;55.40
74153;DHT22;62505;46.070;14.492;2023-03-01T07:23:32;21.40;55.40
74153;DHT22;62505;46.070;14.492;2023-03-01T07:25:59;21.40;55.50
74153;DHT22;62505;46.070;14.492;2023-03-01T07:28:27;21.40;55.40
74153;DHT22;62505;46.070;14.492;2023-03-01T07:30:58;21.40;55.50
74153;DHT22;62505;46.070;14.492;2023-03-01T07:33:27;21.40;55.80
74153;DHT22;62505;46.070;14.492;2023-03-01T07:35:57;21.50;55.80
74153;DHT22;62505;46.070;14.492;2023-03-01T07:38:25;21.70;55.30
74153;DHT22;62505;46.070;14.492;2023-03-01T07:40:52;21.90;54.70
74153;DHT22;62505;46.070;14.492;2023-03-01T07:43:19;22.10;54.40
74153;DHT22;62505;46.070;14.492;2023-03-01T07:45:46;22.20;54.30
74153;DHT22;62505;46.070;14.492;2023-03-01T07:48:15;22.30;53.90
74153;DHT22;62505;46.070;14.492;2023-03-01T07:50:42;22.40;53.70
74153;DHT22;62505;46.070;14.492;2023-03-01T07:53:09;22.50;53.50
74153;DHT22;62505;46.070;14.492;2023-03-01T07:55:37;22.50;53.30
74153;DHT22;62505;46.070;14.492;2023-03-01T07:58:04;22.60;53.20
74153;DHT22;62505;46.070;14.492;2023-03-01T08:00:31;22.60;53.20
74153;DHT22;62505;46.070;14.492;2023-03-01T08:02:59;22.60;53.10
74153;DHT22;62505;46.070;14.492;2023-03-01T08:05:28;22.60;53.00
74153;DHT22;62505;46.070;14.492;2023-03-01T08:07:55;22.70;53.00
74153;DHT22;62505;46.070;14.492;2023-03-01T08:10:22;22.60;53.00
74153;DHT22;62505;46.070;14.492;2023-03-01T08:12:51;22.70;53.20
74153;DHT22;62505;46.070;14.492;2023-03-01T08:15:18;22.60;53.20
74153;DHT22;62505;46.070;14.492;2023-03-01T08:17:45;22.60;53.30
74153;DHT22;62505;46.070;14.492;2023-03-01T08:20:12;22.50;53.50
74153;DHT22;62505;46.070;14.492;2023-03-01T08:22:40;22.60;53.50
74153;DHT22;62505;46.070;14.492;2023-03-01T08:25:08;22.50;53.60
74153;DHT22;62505;46.070;14.492;2023-03-01T08:27:35;22.50;53.70
74153;DHT22;62505;46.070;14.492;2023-03-01T08:30:03;22.40;53.80
74153;DHT22;62505;46.070;14.492;2023-03-01T08:32:32;22.40;53.80
74153;DHT22;62505;46.070;14.492;2023-03-01T08:35:01;22.40;53.80
74153;DHT22;62505;46.070;14.492;2023-03-01T08:37:28;22.40;53.90
74153;DHT22;62505;46.070;14.492;2023-03-01T08:39:58;22.40;53.90
74153;DHT22;62505;46.070;14.492;2023-03-01T08:42:25;22.40;53.90
74153;DHT22;62505;46.070;14.492;2023-03-01T08:44:51;22.50;54.10
74153;DHT22;62505;46.070;14.492;2023-03-01T08:47:18;22.50;54.20
74153;DHT22;62505;46.070;14.492;2023-03-01T08:49:45;22.40;54.30
74153;DHT22;62505;46.070;14.492;2023-03-01T08:52:12;22.40;54.40
74153;DHT22;62505;46.070;14.492;2023-03-01T08:54:39;22.40;54.70
74153;DHT22;62505;46.070;14.492;2023-03-01T08:57:08;22.40;54.60
74153;DHT22;62505;46.070;14.492;2023-03-01T08:59:35;22.40;54.80
74153;DHT22;62505;46.070;14.492;2023-03-01T09:02:03;22.40;56.10
74153;DHT22;62505;46.070;14.492;2023-03-01T09:04:30;22.40;55.80
74153;DHT22;62505;46.070;14.492;2023-03-01T09:06:57;22.40;55.80
74153;DHT22;62505;46.070;14.492;2023-03-01T09:09:24;22.40;56.20
74153;DHT22;62505;46.070;14.492;2023-03-01T09:11:51;22.30;56.30
74153;DHT22;62505;46.070;14.492;2023-03-01T09:14:20;22.30;56.30
74153;DHT22;62505;46.070;14.492;2023-03-01T09:16:47;22.30;56.40
74153;DHT22;62505;46.070;14.492;2023-03-01T09:19:14;22.30;56.30
74153;DHT22;62505;46.070;14.492;2023-03-01T09:21:41;22.30;56.20
74153;DHT22;62505;46.070;14.492;2023-03-01T09:24:18;22.30;56.20
74153;DHT22;62505;46.070;14.492;2023-03-01T09:26:46;22.40;56.10
74153;DHT22;62505;46.070;14.492;2023-03-01T09:29:13;22.40;56.00
74153;DHT22;62505;46.070;14.492;2023-03-01T09:31:43;22.50;55.90
74153;DHT22;62505;46.070;14.492;2023-03-01T09:34:11;22.50;55.80
74153;DHT22;62505;46.070;14.492;2023-03-01T09:36:40;22.50;55.70
74153;DHT22;62505;46.070;14.492;2023-03-01T09:39:08;22.60;55.60
74153;DHT22;62505;46.070;14.492;2023-03-01T09:41:49;22.60;55.70
74153;DHT22;62505;46.070;14.492;2023-03-01T09:44:30;22.70;55.70
74153;DHT22;62505;46.070;14.492;2023-03-01T09:47:00;22.60;55.80
74153;DHT22;62505;46.070;14.492;2023-03-01T09:49:28;22.60;56.00
74153;DHT22;62505;46.070;14.492;2023-03-01T09:52:00;22.60;56.00
74153;DHT22;62505;46.070;14.492;2023-03-01T09:54:30;22.50;55.70
74153;DHT22;62505;46.070;14.492;2023-03-01T09:57:11;22.50;55.60
74153;DHT22;62505;46.070;14.492;2023-03-01T09:59:56;22.50;55.70
74153;DHT22;62505;46.070;14.492;2023-03-01T10:02:33;22.40;55.60
74153;DHT22;62505;46.070;14.492;2023-03-01T10:05:13;22.40;55.60
74153;DHT22;62505;46.070;14.492;2023-03-01T10:07:47;22.30;55.60
74153;DHT22;62505;46.070;14.492;2023-03-01T10:10:23;22.30;55.50
74153;DHT22;62505;46.070;14.492;2023-03-01T10:12:53;22.30;55.50
74153;DHT22;62505;46.070;14.492;2023-03-01T10:15:28;22.30;55.50
74153;DHT22;62505;46.070;14.492;2023-03-01T10:18:02;22.30;55.30
74153;DHT22;62505;46.070;14.492;2023-03-01T10:20:40;22.40;55.20
74153;DHT22;62505;46.070;14.492;2023-03-01T10:23:10;22.40;55.00
74153;DHT22;62505;46.070;14.492;2023-03-01T10:25:47;22.40;54.80
74153;DHT22;62505;46.070;14.492;2023-03-01T10:28:17;22.50;54.70
74153;DHT22;62505;46.070;14.492;2023-03-01T10:30:46;22.50;54.40
74153;DHT22;62505;46.070;14.492;2023-03-01T10:33:17;22.50;54.40
74153;DHT22;62505;46.070;14.492;2023-03-01T10:35:47;22.60;54.40
74153;DHT22;62505;46.070;14.492;2023-03-01T10:38:16;22.60;54.40
74153;DHT22;62505;46.070;14.492;2023-03-01T10:40:54;22.60;54.40
74153;DHT22;62505;46.070;14.492;2023-03-01T10:43:23;22.60;54.40
74153;DHT22;62505;46.070;14.492;2023-03-01T10:45:51;22.50;54.50
74153;DHT22;62505;46.070;14.492;2023-03-01T10:48:22;22.60;54.60
74153;DHT22;62505;46.070;14.492;2023-03-01T10:51:06;22.60;54.60
74153;DHT22;62505;46.070;14.492;2023-03-01T10:53:36;22.60;54.70
74153;DHT22;62505;46.070;14.492;2023-03-01T10:56:06;22.50;54.70
74153;DHT22;62505;46.070;14.492;2023-03-01T10:58:35;22.50;54.80
74153;DHT22;62505;46.070;14.492;2023-03-01T11:01:04;22.50;54.80
74153;DHT22;62505;46.070;14.492;2023-03-01T11:03:34;22.40;54.90
74153;DHT22;62505;46.070;14.492;2023-03-01T11:06:04;22.40;55.00
74153;DHT22;62505;46.070;14.492;2023-03-01T11:08:34;22.40;55.10
74153;DHT22;62505;46.070;14.492;2023-03-01T11:11:17;22.40;55.20
74153;DHT22;62505;46.070;14.492;2023-03-01T11:13:57;22.30;54.90
74153;DHT22;62505;46.070;14.492;2023-03-01T11:16:27;22.30;54.60
74153;DHT22;62505;46.070;14.492;2023-03-01T11:19:16;22.30;54.20
74153;DHT22;62505;46.070;14.492;2023-03-01T11:21:59;22.30;53.90
74153;DHT22;62505;46.070;14.492;2023-03-01T11:24:33;22.40;53.40
74153;DHT22;62505;46.070;14.492;2023-03-01T11:27:04;22.50;52.90
74153;DHT22;62505;46.070;14.492;2023-03-01T11:29:36;22.60;52.40
74153;DHT22;62505;46.070;14.492;2023-03-01T11:32:06;22.70;52.00
74153;DHT22;62505;46.070;14.492;2023-03-01T11:34:40;22.70;51.80
74153;DHT22;62505;46.070;14.492;2023-03-01T11:37:16;22.70;51.60
74153;DHT22;62505;46.070;14.492;2023-03-01T11:39:55;22.70;51.50
74153;DHT22;62505;46.070;14.492;2023-03-01T11:42:30;22.70;51.50
74153;DHT22;62505;46.070;14.492;2023-03-01T11:45:08;22.60;51.50
74153;DHT22;62505;46.070;14.492;2023-03-01T11:47:50;22.60;51.50
74153;DHT22;62505;46.070;14.492;2023-03-01T11:50:30;22.60;51.70
74153;DHT22;62505;46.070;14.492;2023-03-01T11:53:11;22.50;51.70
74153;DHT22;62505;46.070;14.492;2023-03-01T11:55:57;22.40;51.80
74153;DHT22;62505;46.070;14.492;2023-03-01T12:01:42;22.40;52.10
74153;DHT22;62505;46.070;14.492;2023-03-01T12:04:29;22.40;52.30
74153;DHT22;62505;46.070;14.492;2023-03-01T12:07:05;22.30;52.40
74153;DHT22;62505;46.070;14.492;2023-03-01T12:10:04;22.30;52.50
74153;DHT22;62505;46.070;14.492;2023-03-01T12:12:52;22.30;52.50
74153;DHT22;62505;46.070;14.492;2023-03-01T12:15:49;22.40;52.60
74153;DHT22;62505;46.070;14.492;2023-03-01T12:18:31;22.40;52.40
74153;DHT22;62505;46.070;14.492;2023-03-01T12:21:09;22.60;52.30
74153;DHT22;62505;46.070;14.492;2023-03-01T12:24:12;22.60;52.10
74153;DHT22;62505;46.070;14.492;2023-03-01T12:26:48;22.70;52.00
74153;DHT22;62505;46.070;14.492;2023-03-01T12:29:32;22.70;51.90
74153;DHT22;62505;46.070;14.492;2023-03-01T12:32:22;22.70;52.00
74153;DHT22;62505;46.070;14.492;2023-03-01T12:35:16;22.70;52.10
74153;DHT22;62505;46.070;14.492;2023-03-01T12:37:56;22.60;52.10
74153;DHT22;62505;46.070;14.492;2023-03-01T12:40:39;22.60;52.30
74153;DHT22;62505;46.070;14.492;2023-03-01T12:43:19;22.50;52.30
74153;DHT22;62505;46.070;14.492;2023-03-01T12:45:58;22.50;52.50
74153;DHT22;62505;46.070;14.492;2023-03-01T12:48:40;22.40;52.60
74153;DHT22;62505;46.070;14.492;2023-03-01T12:51:13;22.40;52.60
74153;DHT22;62505;46.070;14.492;2023-03-01T12:53:44;22.40;52.80
74153;DHT22;62505;46.070;14.492;2023-03-01T12:56:15;22.40;52.90
74153;DHT22;62505;46.070;14.492;2023-03-01T12:58:51;22.30;52.70
74153;DHT22;62505;46.070;14.492;2023-03-01T13:01:26;22.30;52.40
74153;DHT22;62505;46.070;14.492;2023-03-01T13:07:00;22.40;51.50
74153;DHT22;62505;46.070;14.492;2023-03-01T13:09:34;22.50;50.90
74153;DHT22;62505;46.070;14.492;2023-03-01T13:12:42;22.60;50.50
74153;DHT22;62505;46.070;14.492;2023-03-01T13:15:26;22.80;50.70
74153;DHT22;62505;46.070;14.492;2023-03-01T13:17:55;22.80;50.80
74153;DHT22;62505;46.070;14.492;2023-03-01T13:20:25;22.80;50.90
74153;DHT22;62505;46.070;14.492;2023-03-01T13:23:03;22.80;50.90
74153;DHT22;62505;46.070;14.492;2023-03-01T13:25:31;22.80;51.20
74153;DHT22;62505;46.070;14.492;2023-03-01T13:34:57;22.70;52.20
74153;DHT22;62505;46.070;14.492;2023-03-01T13:37:35;22.70;52.60
74153;DHT22;62505;46.070;14.492;2023-03-01T13:43:30;22.70;53.10
74153;DHT22;62505;46.070;14.492;2023-03-01T13:45:58;22.70;53.40
74153;DHT22;62505;46.070;14.492;2023-03-01T13:48:28;22.60;53.90
74153;DHT22;62505;46.070;14.492;2023-03-01T13:50:58;22.60;55.00
74153;DHT22;62505;46.070;14.492;2023-03-01T13:53:29;22.60;55.30
74153;DHT22;62505;46.070;14.492;2023-03-01T13:56:00;22.60;55.60
74153;DHT22;62505;46.070;14.492;2023-03-01T13:58:32;22.60;55.70
74153;DHT22;62505;46.070;14.492;2023-03-01T14:01:03;22.60;55.70
74153;DHT22;62505;46.070;14.492;2023-03-01T14:03:32;22.60;55.60
74153;DHT22;62505;46.070;14.492;2023-03-01T14:06:04;22.50;55.10
74153;DHT22;62505;46.070;14.492;2023-03-01T14:08:34;22.40;54.50
74153;DHT22;62505;46.070;14.492;2023-03-01T14:11:31;22.40;54.20
74153;DHT22;62505;46.070;14.492;2023-03-01T14:14:22;22.40;53.80
74153;DHT22;62505;46.070;14.492;2023-03-01T14:17:00;22.30;53.60
74153;DHT22;62505;46.070;14.492;2023-03-01T14:19:33;22.30;53.40
74153;DHT22;62505;46.070;14.492;2023-03-01T14:22:04;22.30;53.10
74153;DHT22;62505;46.070;14.492;2023-03-01T14:24:34;22.30;53.10
74153;DHT22;62505;46.070;14.492;2023-03-01T14:27:02;22.30;52.80
74153;DHT22;62505;46.070;14.492;2023-03-01T14:29:36;22.30;52.40
74153;DHT22;62505;46.070;14.492;2023-03-01T14:32:11;22.20;52.30
74153;DHT22;62505;46.070;14.492;2023-03-01T14:34:43;22.30;52.50
74153;DHT22;62505;46.070;14.492;2023-03-01T14:37:18;22.20;52.20
74153;DHT22;62505;46.070;14.492;2023-03-01T14:39:46;22.20;52.10
74153;DHT22;62505;46.070;14.492;2023-03-01T14:42:14;22.20;52.00
74153;DHT22;62505;46.070;14.492;2023-03-01T14:44:46;22.20;52.10
74153;DHT22;62505;46.070;14.492;2023-03-01T14:47:16;22.20;52.10
74153;DHT22;62505;46.070;14.492;2023-03-01T14:49:50;22.20;52.30
74153;DHT22;62505;46.070;14.492;2023-03-01T14:52:22;22.10;52.50
74153;DHT22;62505;46.070;14.492;2023-03-01T14:54:53;22.10;52.70
74153;DHT22;62505;46.070;14.492;2023-03-01T14:57:22;22.10;52.90
74153;DHT22;62505;46.070;14.492;2023-03-01T14:59:54;22.10;53.00
74153;DHT22;62505;46.070;14.492;2023-03-01T15:02:25;22.10;53.10
74153;DHT22;62505;46.070;14.492;2023-03-01T15:04:55;22.00;53.00
74153;DHT22;62505;46.070;14.492;2023-03-01T15:07:26;22.10;53.10
74153;DHT22;62505;46.070;14.492;2023-03-01T15:09:53;22.00;53.00
74153;DHT22;62505;46.070;14.492;2023-03-01T15:12:39;22.00;52.90
74153;DHT22;62505;46.070;14.492;2023-03-01T15:15:37;22.00;52.90
74153;DHT22;62505;46.070;14.492;2023-03-01T15:18:16;22.00;52.90
74153;DHT22;62505;46.070;14.492;2023-03-01T15:20:44;22.00;52.90
74153;DHT22;62505;46.070;14.492;2023-03-01T15:23:19;22.00;53.00
74153;DHT22;62505;46.070;14.492;2023-03-01T15:25:47;22.00;52.90
74153;DHT22;62505;46.070;14.492;2023-03-01T15:28:20;21.90;52.90
74153;DHT22;62505;46.070;14.492;2023-03-01T15:30:54;21.90;52.90
74153;DHT22;62505;46.070;14.492;2023-03-01T15:33:31;21.90;52.90
74153;DHT22;62505;46.070;14.492;2023-03-01T15:36:00;21.90;53.00
74153;DHT22;62505;46.070;14.492;2023-03-01T15:38:30;21.90;53.00
74153;DHT22;62505;46.070;14.492;2023-03-01T15:40:59;21.90;53.10
74153;DHT22;62505;46.070;14.492;2023-03-01T15:43:42;21.90;53.10
74153;DHT22;62505;46.070;14.492;2023-03-01T15:46:18;21.90;53.10
74153;DHT22;62505;46.070;14.492;2023-03-01T15:48:46;21.90;53.10
74153;DHT22;62505;46.070;14.492;2023-03-01T15:51:15;21.90;53.10
74153;DHT22;62505;46.070;14.492;2023-03-01T15:53:46;21.90;53.20
74153;DHT22;62505;46.070;14.492;2023-03-01T15:56:14;21.90;53.60